HE20 weather

Ras Jimsah New Airport
Red Sea Governorate, Egypt

Public forecast

Using degrees Celsius for public forecast. Weather courtesy of forecast.io.

Closest aviation weather report (METAR) to Ras Jimsah New Airport

Closest report is El Tor Airport, 23.3 nm (43.2 km) NNE. Retrieved 2019/10/19 20:00 UTC (1 hour ago):

HETR 192000Z 34016KT CAVOK 29/15 Q1013

Closest aviation forecast (TAF) to Ras Jimsah New Airport

Closest forecast is El Tor Airport, 23.3 nm (43.2 km) NNE. Retrieved 2019/10/19 18:00 UTC (3 hours ago):

TAF HETR 191700Z 1918/2024 32010G24KT CAVOK